createdAt,value
2024-01-11T00:00:32.955Z,17.37
2024-01-11T00:02:59.712Z,18.03
2024-01-11T00:05:26.524Z,18.47
2024-01-11T00:07:53.690Z,17.87
2024-01-11T00:10:21.263Z,15.83
2024-01-11T00:12:47.999Z,18.03
2024-01-11T00:15:15.222Z,18.07
2024-01-11T00:17:42.447Z,15.70
2024-01-11T00:20:10.648Z,18.10
2024-01-11T00:22:37.648Z,19.10
2024-01-11T00:25:05.471Z,16.50
2024-01-11T00:27:32.207Z,15.27
2024-01-11T00:29:58.956Z,17.13
2024-01-11T00:32:26.648Z,17.00
2024-01-11T00:34:54.232Z,16.50
2024-01-11T00:37:20.957Z,17.60
2024-01-11T00:39:47.647Z,18.23
2024-01-11T00:42:14.332Z,20.53
2024-01-11T00:44:41.684Z,16.90
2024-01-11T00:47:08.472Z,16.97
2024-01-11T00:49:35.293Z,18.80
2024-01-11T00:52:02.071Z,19.23
2024-01-11T00:54:31.694Z,18.63
2024-01-11T00:56:58.379Z,17.83
2024-01-11T00:59:25.577Z,17.17
2024-01-11T01:01:52.273Z,16.30
2024-01-11T01:04:18.950Z,17.27
2024-01-11T01:06:46.035Z,17.03
2024-01-11T01:09:12.834Z,17.33
2024-01-11T01:11:39.536Z,16.47
2024-01-11T01:14:06.538Z,18.43
2024-01-11T01:16:33.358Z,16.40
2024-01-11T01:19:00.218Z,15.90
2024-01-11T01:21:26.994Z,18.80
2024-01-11T01:23:53.891Z,17.50
2024-01-11T01:26:21.430Z,15.17
2024-01-11T01:28:48.356Z,15.47
2024-01-11T01:31:15.478Z,18.23
2024-01-11T01:33:42.419Z,17.67
2024-01-11T01:36:11.258Z,14.40
2024-01-11T01:38:38.024Z,15.23
2024-01-11T01:41:04.880Z,15.97
2024-01-11T01:43:31.581Z,17.80
2024-01-11T01:45:58.881Z,18.20
2024-01-11T01:48:25.909Z,15.53
2024-01-11T01:50:52.828Z,16.10
2024-01-11T01:53:20.994Z,16.20
2024-01-11T01:55:49.170Z,15.97
2024-01-11T01:58:17.004Z,19.57
2024-01-11T02:00:45.223Z,19.27
2024-01-11T02:03:12.107Z,16.83
2024-01-11T02:05:39.125Z,18.33
2024-01-11T02:08:11.114Z,16.13
2024-01-11T02:10:37.993Z,15.70
2024-01-11T02:13:08.288Z,17.37
2024-01-11T02:15:36.706Z,14.17
2024-01-11T02:18:03.698Z,14.33
2024-01-11T02:20:30.507Z,17.73
2024-01-11T02:23:02.517Z,16.03
2024-01-11T02:25:29.262Z,14.63
2024-01-11T02:27:55.966Z,18.40
2024-01-11T02:30:23.201Z,15.60
2024-01-11T02:32:50.668Z,17.33
2024-01-11T02:35:17.834Z,18.17
2024-01-11T02:37:45.132Z,15.77
2024-01-11T02:40:14.287Z,16.70
2024-01-11T02:42:41.028Z,18.07
2024-01-11T02:45:08.532Z,17.47
2024-01-11T02:47:35.389Z,15.70
2024-01-11T02:50:02.630Z,16.20
2024-01-11T02:52:29.863Z,19.07
2024-01-11T02:54:56.588Z,16.50
2024-01-11T02:57:23.696Z,16.33
2024-01-11T02:59:50.779Z,16.70
2024-01-11T03:02:17.529Z,17.90
2024-01-11T03:04:44.381Z,17.37
2024-01-11T03:07:11.171Z,17.13
2024-01-11T03:09:37.915Z,16.57
2024-01-11T03:12:05.096Z,18.23
2024-01-11T03:14:31.849Z,14.10
2024-01-11T03:16:58.580Z,17.20
2024-01-11T03:19:25.421Z,16.97
2024-01-11T03:21:52.159Z,16.43
2024-01-11T03:24:18.896Z,17.13
2024-01-11T03:26:45.680Z,18.07
2024-01-11T03:29:12.512Z,17.53
2024-01-11T03:31:42.449Z,16.17
2024-01-11T03:34:09.574Z,15.63
2024-01-11T03:36:36.477Z,17.83
2024-01-11T03:39:03.184Z,15.20
2024-01-11T03:41:29.935Z,15.87
2024-01-11T03:43:56.833Z,18.40
2024-01-11T03:46:23.861Z,17.60
2024-01-11T03:48:51.059Z,16.10
2024-01-11T03:51:17.829Z,16.87
2024-01-11T03:53:44.648Z,17.17
2024-01-11T03:56:11.541Z,15.40
2024-01-11T03:58:40.623Z,18.37
2024-01-11T04:01:09.459Z,16.57
2024-01-11T04:03:36.800Z,16.43
2024-01-11T04:06:04.337Z,15.53
2024-01-11T04:08:31.104Z,15.90
2024-01-11T04:10:57.833Z,15.57
2024-01-11T04:13:25.666Z,13.80
2024-01-11T04:15:52.411Z,16.20
2024-01-11T04:18:19.312Z,20.23
2024-01-11T04:20:46.563Z,16.60
2024-01-11T04:23:13.303Z,18.60
2024-01-11T04:25:40.051Z,16.40
2024-01-11T04:28:06.778Z,15.93
2024-01-11T04:30:33.573Z,16.73
2024-01-11T04:33:00.598Z,16.33
2024-01-11T04:35:27.697Z,16.87
2024-01-11T04:37:54.947Z,18.83
2024-01-11T04:40:21.676Z,16.00
2024-01-11T04:42:48.370Z,19.77
2024-01-11T04:45:15.141Z,16.90
2024-01-11T04:47:42.362Z,19.17
2024-01-11T04:50:09.540Z,14.93
2024-01-11T04:52:36.365Z,18.87
2024-01-11T04:55:03.381Z,16.07
2024-01-11T04:57:30.080Z,16.27
2024-01-11T04:59:58.354Z,15.97
2024-01-11T05:02:26.316Z,17.13
2024-01-11T05:04:53.081Z,14.80
2024-01-11T05:07:19.871Z,16.43
2024-01-11T05:09:46.648Z,14.57
2024-01-11T05:12:13.413Z,15.80
2024-01-11T05:14:40.228Z,18.37
2024-01-11T05:17:07.055Z,17.23
2024-01-11T05:19:33.906Z,16.90
2024-01-11T05:22:00.638Z,16.77
2024-01-11T05:24:27.317Z,16.40
2024-01-11T05:26:54.072Z,16.83
2024-01-11T05:29:21.332Z,15.47
2024-01-11T05:31:48.170Z,16.47
2024-01-11T05:34:15.655Z,16.63
2024-01-11T05:36:42.665Z,17.73
2024-01-11T05:39:09.527Z,19.03
2024-01-11T05:41:36.231Z,14.10
2024-01-11T05:44:02.993Z,14.67
2024-01-11T05:46:32.378Z,12.80
2024-01-11T05:49:00.781Z,15.73
2024-01-11T05:51:28.157Z,15.30
2024-01-11T05:53:55.107Z,18.70
2024-01-11T05:56:22.728Z,17.30
2024-01-11T05:58:49.470Z,14.87
2024-01-11T06:01:16.266Z,15.23
2024-01-11T06:03:43.101Z,17.10
2024-01-11T06:06:10.341Z,17.00
2024-01-11T06:08:37.871Z,17.13
2024-01-11T06:11:05.390Z,14.50
2024-01-11T06:13:32.766Z,15.83
2024-01-11T06:15:59.539Z,15.40
2024-01-11T06:18:26.670Z,16.17
2024-01-11T06:20:53.545Z,17.50
2024-01-11T06:23:21.032Z,16.37
2024-01-11T06:25:47.927Z,15.67
2024-01-11T06:28:14.874Z,17.13
2024-01-11T06:30:41.875Z,16.07
2024-01-11T06:33:08.846Z,15.80
2024-01-11T06:35:35.897Z,15.43
2024-01-11T06:38:02.727Z,17.70
2024-01-11T06:40:29.452Z,15.23
2024-01-11T06:42:56.699Z,15.33
2024-01-11T06:45:23.425Z,15.47
2024-01-11T06:47:50.711Z,15.20
2024-01-11T06:50:18.698Z,14.70
2024-01-11T06:52:45.474Z,16.33
2024-01-11T06:55:12.624Z,15.33
2024-01-11T06:57:39.412Z,15.37
2024-01-11T07:00:08.476Z,15.93
2024-01-11T07:02:36.129Z,17.13
2024-01-11T07:05:03.435Z,15.97
2024-01-11T07:07:30.707Z,16.23
2024-01-11T07:09:57.937Z,17.90
2024-01-11T07:12:24.690Z,16.40
2024-01-11T07:14:51.417Z,15.50
2024-01-11T07:17:18.228Z,14.63
2024-01-11T07:19:45.000Z,16.60
2024-01-11T07:22:11.950Z,15.67
2024-01-11T07:24:39.181Z,17.20
2024-01-11T07:27:06.820Z,16.97
2024-01-11T07:29:34.381Z,16.90
2024-01-11T07:32:01.556Z,15.60
2024-01-11T07:34:28.980Z,16.33
2024-01-11T07:36:56.001Z,18.83
2024-01-11T07:39:23.696Z,17.47
2024-01-11T07:41:50.585Z,14.67
2024-01-11T07:44:17.832Z,16.53
2024-01-11T07:46:52.483Z,16.53
2024-01-11T07:49:21.748Z,15.37
2024-01-11T07:51:48.737Z,16.37
2024-01-11T07:54:15.442Z,18.80
2024-01-11T07:56:42.321Z,16.17
2024-01-11T07:59:09.232Z,18.03
2024-01-11T08:01:36.894Z,13.93
2024-01-11T08:04:04.406Z,17.10
2024-01-11T08:06:31.561Z,14.20
2024-01-11T08:08:58.423Z,16.47
2024-01-11T08:11:26.492Z,14.97
2024-01-11T08:13:55.971Z,14.00
2024-01-11T08:16:23.243Z,15.37
2024-01-11T08:18:50.558Z,17.03
2024-01-11T08:21:17.321Z,17.30
2024-01-11T08:23:49.924Z,13.87
2024-01-11T08:26:17.402Z,16.00
2024-01-11T08:28:44.416Z,15.67
2024-01-11T08:31:11.247Z,15.97
2024-01-11T08:33:38.998Z,12.97
2024-01-11T08:36:07.467Z,16.13
2024-01-11T08:38:35.008Z,13.57
2024-01-11T08:41:02.910Z,16.30
2024-01-11T08:43:29.773Z,14.20
2024-01-11T08:45:56.541Z,15.03
2024-01-11T08:48:23.453Z,16.50
2024-01-11T08:50:50.803Z,17.27
2024-01-11T08:53:17.666Z,16.57
2024-01-11T08:55:46.070Z,13.07
2024-01-11T08:58:13.786Z,14.13
2024-01-11T09:00:40.591Z,16.33
2024-01-11T09:03:07.870Z,15.00
2024-01-11T09:05:34.738Z,14.20
2024-01-11T09:08:01.672Z,15.73
2024-01-11T09:10:28.893Z,13.90
2024-01-11T09:12:56.070Z,12.60
2024-01-11T09:15:24.358Z,15.67
2024-01-11T09:17:51.783Z,14.43
2024-01-11T09:20:19.918Z,14.20
2024-01-11T09:22:47.202Z,11.83
2024-01-11T09:25:13.922Z,12.13
2024-01-11T09:27:41.386Z,14.73
2024-01-11T09:30:08.738Z,14.13
2024-01-11T09:32:35.865Z,15.47
2024-01-11T09:35:05.792Z,13.27
2024-01-11T09:37:32.890Z,15.97
2024-01-11T09:40:01.890Z,15.67
2024-01-11T09:42:29.371Z,14.50
2024-01-11T09:44:57.771Z,13.53
2024-01-11T09:47:25.049Z,15.30
2024-01-11T09:49:54.587Z,14.97
2024-01-11T09:52:22.995Z,13.33
2024-01-11T09:54:49.822Z,15.37
2024-01-11T09:57:20.561Z,16.50
2024-01-11T09:59:47.415Z,17.00
2024-01-11T10:02:14.489Z,15.43
2024-01-11T10:04:43.447Z,15.87
2024-01-11T10:07:10.759Z,16.20
2024-01-11T10:09:37.797Z,14.00
2024-01-11T10:12:04.943Z,15.20
2024-01-11T10:14:32.824Z,16.60
2024-01-11T10:16:59.792Z,15.27
2024-01-11T10:19:27.092Z,15.73
2024-01-11T10:21:54.312Z,15.00
2024-01-11T10:24:27.388Z,16.77
2024-01-11T10:26:58.225Z,15.03
2024-01-11T10:29:31.669Z,14.70
2024-01-11T10:31:58.371Z,20.00
2024-01-11T10:34:25.615Z,17.17
2024-01-11T10:36:52.858Z,16.57
2024-01-11T10:39:22.147Z,16.97
2024-01-11T10:41:52.271Z,16.33
2024-01-11T10:44:23.281Z,18.90
2024-01-11T10:46:51.008Z,17.67
2024-01-11T10:49:21.096Z,18.40
2024-01-11T10:51:58.656Z,17.77
2024-01-11T10:54:25.466Z,18.87
2024-01-11T10:56:53.172Z,16.33
2024-01-11T10:59:22.045Z,18.10
2024-01-11T11:01:48.856Z,17.77
2024-01-11T11:04:16.695Z,17.57
2024-01-11T11:06:44.537Z,17.53
2024-01-11T11:09:13.024Z,20.77
2024-01-11T11:11:40.788Z,19.70
2024-01-11T11:14:08.614Z,18.10
2024-01-11T11:16:35.395Z,17.93
2024-01-11T11:19:02.323Z,19.80
2024-01-11T11:21:29.595Z,20.60
2024-01-11T11:23:57.821Z,18.80
2024-01-11T11:26:27.404Z,19.77
2024-01-11T11:28:54.142Z,18.97
2024-01-11T11:31:55.086Z,21.30
2024-01-11T11:34:22.249Z,20.07
2024-01-11T11:36:51.348Z,21.40
2024-01-11T11:39:20.887Z,21.00
2024-01-11T11:41:50.760Z,20.73
2024-01-11T11:44:17.650Z,20.77
2024-01-11T11:46:46.211Z,19.47
2024-01-11T11:49:14.636Z,21.33
2024-01-11T11:51:42.280Z,18.70
2024-01-11T11:54:16.309Z,22.13
2024-01-11T11:56:43.597Z,23.97
2024-01-11T11:59:10.735Z,25.17
2024-01-11T12:01:38.729Z,21.90
2024-01-11T12:04:05.472Z,19.50
2024-01-11T12:06:32.288Z,21.93
2024-01-11T12:08:59.372Z,20.50
2024-01-11T12:11:26.840Z,20.33
2024-01-11T12:13:55.194Z,22.10
2024-01-11T12:16:22.031Z,20.53
2024-01-11T12:18:50.590Z,22.13
2024-01-11T12:21:18.075Z,23.10
2024-01-11T12:23:45.336Z,19.50
2024-01-11T12:26:15.376Z,23.50
2024-01-11T12:28:43.820Z,23.97
2024-01-11T12:31:11.032Z,21.30
2024-01-11T12:33:39.947Z,26.07
2024-01-11T12:36:11.873Z,22.23
2024-01-11T12:38:39.153Z,21.77
2024-01-11T12:41:06.711Z,22.30
2024-01-11T12:43:35.239Z,21.50
2024-01-11T12:46:02.347Z,22.10
2024-01-11T12:48:29.288Z,20.53
2024-01-11T12:51:09.868Z,21.20
2024-01-11T12:53:41.912Z,23.10
2024-01-11T12:56:12.876Z,20.13
2024-01-11T12:58:40.508Z,22.57
2024-01-11T13:01:09.033Z,22.17
2024-01-11T13:03:39.780Z,21.17
2024-01-11T13:06:07.279Z,23.57
2024-01-11T13:08:37.473Z,22.83
2024-01-11T13:11:08.282Z,20.00
2024-01-11T13:13:36.049Z,22.10
2024-01-11T13:16:12.509Z,21.43
2024-01-11T13:18:39.598Z,24.47
2024-01-11T13:21:07.898Z,20.80
2024-01-11T13:23:34.951Z,19.80
2024-01-11T13:26:03.480Z,20.97
2024-01-11T13:28:30.410Z,22.60
2024-01-11T13:30:57.944Z,20.63
2024-01-11T13:33:25.095Z,19.03
2024-01-11T13:35:52.198Z,24.70
2024-01-11T13:38:21.521Z,21.53
2024-01-11T13:40:49.559Z,17.30
2024-01-11T13:43:16.244Z,23.23
2024-01-11T13:45:43.154Z,21.90
2024-01-11T13:48:13.102Z,19.27
2024-01-11T13:50:40.125Z,20.53
2024-01-11T13:53:07.468Z,19.23
2024-01-11T13:55:41.129Z,21.07
2024-01-11T13:58:08.806Z,23.13
2024-01-11T14:00:35.759Z,21.03
2024-01-11T14:03:03.006Z,20.97
2024-01-11T14:05:29.881Z,22.53
2024-01-11T14:08:00.080Z,19.90
2024-01-11T14:10:28.302Z,22.80
2024-01-11T14:12:55.473Z,19.93
2024-01-11T14:15:24.545Z,20.60
2024-01-11T14:17:52.317Z,23.83
2024-01-11T14:20:19.463Z,21.30
2024-01-11T14:22:53.213Z,19.77
2024-01-11T14:25:21.483Z,21.97
2024-01-11T14:27:51.703Z,20.17
2024-01-11T14:30:18.963Z,21.57
2024-01-11T14:32:47.150Z,20.23
2024-01-11T14:35:14.458Z,21.60
2024-01-11T14:37:41.899Z,22.73
2024-01-11T14:40:13.553Z,19.70
2024-01-11T14:42:41.005Z,21.97
2024-01-11T14:45:08.450Z,21.13
2024-01-11T14:47:36.050Z,20.83
2024-01-11T14:50:05.300Z,21.97
2024-01-11T14:52:32.495Z,20.70
2024-01-11T14:54:59.334Z,20.53
2024-01-11T14:57:26.074Z,21.40
2024-01-11T14:59:54.032Z,20.23
2024-01-11T15:02:20.936Z,23.90
2024-01-11T15:04:48.374Z,21.20
2024-01-11T15:07:15.797Z,20.90
2024-01-11T15:09:43.937Z,18.20
2024-01-11T15:12:10.852Z,21.60
2024-01-11T15:14:37.635Z,23.27
2024-01-11T15:17:04.864Z,19.53
2024-01-11T15:19:31.807Z,18.50
2024-01-11T15:21:58.675Z,20.30
2024-01-11T15:24:25.458Z,19.13
2024-01-11T15:26:52.409Z,18.23
2024-01-11T15:29:19.568Z,17.93
2024-01-11T15:31:47.725Z,18.37
2024-01-11T15:34:18.254Z,16.73
2024-01-11T15:36:45.275Z,19.17
2024-01-11T15:39:21.189Z,19.60
2024-01-11T15:41:58.525Z,17.77
2024-01-11T15:44:28.566Z,17.57
2024-01-11T15:46:57.269Z,17.63
2024-01-11T15:49:24.250Z,19.03
2024-01-11T15:51:51.104Z,17.97
2024-01-11T15:54:18.360Z,17.93
2024-01-11T15:56:45.611Z,17.10
2024-01-11T15:59:12.475Z,17.20
2024-01-11T16:01:50.933Z,18.17
2024-01-11T16:04:30.091Z,21.47
2024-01-11T16:06:57.313Z,19.00
2024-01-11T16:09:24.583Z,19.50
2024-01-11T16:11:51.511Z,18.13
2024-01-11T16:14:18.425Z,16.93
2024-01-11T16:16:45.210Z,18.47
2024-01-11T16:19:12.547Z,16.43
2024-01-11T16:21:40.307Z,19.53
2024-01-11T16:24:07.406Z,18.20
2024-01-11T16:26:34.218Z,18.07
2024-01-11T16:29:01.429Z,19.13
2024-01-11T16:31:30.244Z,16.10
2024-01-11T16:33:57.486Z,19.33
2024-01-11T16:36:24.566Z,19.43
2024-01-11T16:38:52.162Z,21.50
2024-01-11T16:41:20.045Z,17.67
2024-01-11T16:43:46.939Z,17.83
2024-01-11T16:46:22.755Z,17.00
2024-01-11T16:48:50.826Z,18.53
2024-01-11T16:51:17.858Z,19.27
2024-01-11T16:53:45.250Z,19.10
2024-01-11T16:56:12.292Z,18.10
2024-01-11T16:58:39.235Z,17.50
2024-01-11T17:01:06.133Z,19.87
2024-01-11T17:03:33.080Z,20.27
2024-01-11T17:05:59.865Z,19.80
2024-01-11T17:08:26.716Z,18.77
2024-01-11T17:10:53.524Z,19.80
2024-01-11T17:13:20.246Z,19.37
2024-01-11T17:15:46.986Z,17.50
2024-01-11T17:18:14.285Z,19.40
2024-01-11T17:20:41.221Z,18.83
2024-01-11T17:23:08.022Z,20.63
2024-01-11T17:25:34.744Z,19.63
2024-01-11T17:28:01.440Z,19.63
2024-01-11T17:30:28.180Z,21.83
2024-01-11T17:32:55.957Z,20.13
2024-01-11T17:35:23.025Z,19.53
2024-01-11T17:37:50.046Z,19.10
2024-01-11T17:40:16.798Z,18.50
2024-01-11T17:42:43.632Z,20.47
2024-01-11T17:45:11.266Z,21.30
2024-01-11T17:47:38.192Z,21.17
2024-01-11T17:50:05.676Z,20.90
2024-01-11T17:52:32.446Z,19.73
2024-01-11T17:54:59.553Z,19.07
2024-01-11T17:57:28.508Z,23.30
2024-01-11T17:59:55.242Z,21.93
2024-01-11T18:02:22.236Z,22.67
2024-01-11T18:04:49.007Z,20.33
2024-01-11T18:07:16.283Z,20.80
2024-01-11T18:09:43.619Z,19.27
2024-01-11T18:12:10.319Z,20.50
2024-01-11T18:14:37.483Z,20.47
2024-01-11T18:17:05.696Z,19.87
2024-01-11T18:19:32.894Z,21.07
2024-01-11T18:21:59.706Z,23.77
2024-01-11T18:24:26.397Z,19.90
2024-01-11T18:26:53.236Z,21.10
2024-01-11T18:29:23.078Z,19.43
2024-01-11T18:31:50.136Z,21.80
2024-01-11T18:34:18.855Z,23.47
2024-01-11T18:36:48.722Z,24.87
2024-01-11T18:39:16.886Z,21.93
2024-01-11T18:41:44.393Z,23.33
2024-01-11T18:44:11.984Z,23.37
2024-01-11T18:46:40.069Z,21.17
2024-01-11T18:49:08.845Z,23.00
2024-01-11T18:51:40.772Z,21.47
2024-01-11T18:54:07.571Z,22.67
2024-01-11T18:56:34.436Z,20.60
2024-01-11T18:59:01.661Z,22.00
2024-01-11T19:01:29.643Z,23.47
2024-01-11T19:03:56.617Z,24.40
2024-01-11T19:06:24.615Z,21.57
2024-01-11T19:08:51.485Z,22.73
2024-01-11T19:11:18.559Z,27.77
2024-01-11T19:13:45.366Z,23.00
2024-01-11T19:16:12.103Z,23.70
2024-01-11T19:18:38.985Z,24.57
2024-01-11T19:21:06.035Z,22.23
2024-01-11T19:23:33.766Z,23.03
2024-01-11T19:26:00.930Z,22.93
2024-01-11T19:28:28.134Z,22.80
2024-01-11T19:30:55.122Z,22.93
2024-01-11T19:33:22.370Z,22.03
2024-01-11T19:35:50.019Z,20.80
2024-01-11T19:38:16.858Z,22.97
2024-01-11T19:40:43.594Z,21.27
2024-01-11T19:43:10.561Z,20.80
2024-01-11T19:45:37.566Z,22.30
2024-01-11T19:48:04.963Z,21.20
2024-01-11T19:50:34.292Z,22.93
2024-01-11T19:53:01.459Z,22.80
2024-01-11T19:55:28.202Z,22.73
2024-01-11T19:57:55.013Z,21.37
2024-01-11T20:00:21.802Z,21.93
2024-01-11T20:02:48.746Z,20.43
2024-01-11T20:05:15.787Z,19.43
2024-01-11T20:07:44.595Z,19.27
2024-01-11T20:10:11.883Z,19.47
2024-01-11T20:12:38.958Z,21.73
2024-01-11T20:15:07.903Z,21.60
2024-01-11T20:17:35.036Z,22.23
2024-01-11T20:20:01.967Z,20.17
2024-01-11T20:22:28.745Z,21.00
2024-01-11T20:24:56.029Z,20.13
2024-01-11T20:27:23.381Z,22.47
2024-01-11T20:29:50.412Z,19.63
2024-01-11T20:32:17.559Z,20.10
2024-01-11T20:34:44.646Z,22.93
2024-01-11T20:37:11.522Z,20.30
2024-01-11T20:39:39.126Z,21.00
2024-01-11T20:42:06.374Z,19.80
2024-01-11T20:44:33.684Z,20.00
2024-01-11T20:47:01.058Z,20.67
2024-01-11T20:49:28.776Z,18.23
2024-01-11T20:51:58.403Z,19.80
2024-01-11T20:54:25.568Z,20.53
2024-01-11T20:56:52.442Z,21.80
2024-01-11T20:59:19.254Z,21.43
2024-01-11T21:01:46.685Z,21.13
2024-01-11T21:04:13.445Z,16.87
2024-01-11T21:06:40.237Z,20.13
2024-01-11T21:09:07.563Z,19.93
2024-01-11T21:11:34.771Z,19.27
2024-01-11T21:14:02.249Z,21.30
2024-01-11T21:16:28.963Z,19.67
2024-01-11T21:18:55.887Z,18.47
2024-01-11T21:21:27.495Z,22.43
2024-01-11T21:23:59.390Z,21.33
2024-01-11T21:26:26.958Z,21.40
2024-01-11T21:28:56.965Z,21.77
2024-01-11T21:31:26.395Z,19.30
2024-01-11T21:33:53.666Z,20.83
2024-01-11T21:36:24.033Z,21.83
2024-01-11T21:38:56.231Z,20.27
2024-01-11T21:41:24.171Z,18.33
2024-01-11T21:43:52.193Z,21.83
2024-01-11T21:46:19.640Z,21.27
2024-01-11T21:48:47.091Z,22.13
2024-01-11T21:51:14.274Z,20.37
2024-01-11T21:53:41.645Z,19.63
2024-01-11T21:56:08.973Z,18.07
2024-01-11T21:58:36.900Z,21.50
2024-01-11T22:01:04.292Z,18.13
2024-01-11T22:03:32.470Z,18.33
2024-01-11T22:05:59.472Z,21.17
2024-01-11T22:08:26.412Z,21.10
2024-01-11T22:10:55.393Z,21.53
2024-01-11T22:13:22.910Z,20.33
2024-01-11T22:15:49.809Z,20.03
2024-01-11T22:18:16.810Z,20.60
2024-01-11T22:20:43.931Z,20.53
2024-01-11T22:23:10.781Z,19.97
2024-01-11T22:25:37.526Z,21.13
2024-01-11T22:28:04.489Z,20.20
2024-01-11T22:30:31.378Z,23.13
2024-01-11T22:32:58.277Z,18.67
2024-01-11T22:35:25.306Z,17.53
2024-01-11T22:37:52.115Z,20.93
2024-01-11T22:40:19.268Z,20.30
2024-01-11T22:42:46.523Z,22.00
2024-01-11T22:45:13.264Z,20.83
2024-01-11T22:47:41.076Z,21.07
2024-01-11T22:50:08.363Z,21.27
2024-01-11T22:52:35.118Z,19.00
2024-01-11T22:55:01.946Z,24.77
2024-01-11T22:57:28.682Z,24.87
2024-01-11T22:59:55.469Z,20.07
2024-01-11T23:02:22.404Z,21.17
2024-01-11T23:04:49.212Z,20.40
2024-01-11T23:07:15.915Z,18.40
2024-01-11T23:09:42.688Z,22.40
2024-01-11T23:12:10.613Z,19.27
2024-01-11T23:14:38.166Z,18.90
2024-01-11T23:17:07.193Z,17.43
2024-01-11T23:19:34.229Z,19.37
2024-01-11T23:22:01.068Z,20.07
2024-01-11T23:24:27.891Z,20.80
2024-01-11T23:26:54.922Z,18.07
2024-01-11T23:29:22.099Z,22.20
2024-01-11T23:31:49.403Z,20.17
2024-01-11T23:34:16.626Z,19.70
2024-01-11T23:36:43.433Z,19.87
2024-01-11T23:39:10.182Z,18.00
2024-01-11T23:41:36.947Z,18.80
2024-01-11T23:44:03.788Z,19.17
2024-01-11T23:46:30.548Z,17.17
2024-01-11T23:48:57.432Z,18.37
2024-01-11T23:51:24.487Z,20.03
2024-01-11T23:53:51.392Z,17.23
2024-01-11T23:56:18.282Z,17.80
2024-01-11T23:58:44.996Z,18.90
